createdAt,value
2019-05-01T00:15:55.581Z,93851.27
2019-05-01T00:30:52.167Z,93834.37
2019-05-01T00:45:49.445Z,93834.23
2019-05-01T01:15:50.015Z,93846.11
2019-05-01T01:30:57.399Z,93843.48
2019-05-01T01:45:54.502Z,93814.28
2019-05-01T02:15:49.133Z,93787.38
2019-05-01T02:45:53.050Z,93778.20
2019-05-01T03:00:50.931Z,93791.95
2019-05-01T03:15:57.781Z,93794.20
2019-05-01T03:30:59.438Z,93812.03
2019-05-01T03:45:57.491Z,93829.34
2019-05-01T04:00:54.300Z,93837.63
2019-05-01T04:30:57.185Z,93809.67
2019-05-01T04:45:49.784Z,93797.22
2019-05-01T05:00:57.737Z,93805.97
2019-05-01T05:15:54.434Z,93815.97
2019-05-01T05:30:51.919Z,93810.53
2019-05-01T05:45:49.777Z,93812.86
2019-05-01T06:15:51.696Z,93789.36
2019-05-01T06:30:50.121Z,93809.64
2019-05-01T07:00:51.914Z,93828.34
2019-05-01T07:15:49.779Z,93835.67
2019-05-01T07:30:56.230Z,93827.64
2019-05-01T07:45:54.824Z,93826.27
2019-05-01T08:15:49.534Z,93819.29
2019-05-01T09:00:49.680Z,93815.58
2019-05-01T09:15:49.691Z,93813.88
2019-05-01T09:30:51.321Z,93824.36
2019-05-01T09:45:50.338Z,93810.56
2019-05-01T10:00:53.949Z,93794.61
2019-05-01T10:15:57.444Z,93797.79
2019-05-01T10:45:49.787Z,93793.30
2019-05-01T11:00:54.528Z,93784.83
2019-05-01T11:15:58.701Z,93772.77
2019-05-01T11:30:50.631Z,93772.00
2019-05-01T11:45:49.106Z,93777.30
2019-05-01T12:00:53.039Z,93780.13
2019-05-01T12:15:53.100Z,93773.41
2019-05-01T12:30:49.288Z,93766.16
2019-05-01T12:45:50.992Z,93750.80
2019-05-01T13:00:54.241Z,93743.31
2019-05-01T13:15:49.641Z,93722.06
2019-05-01T13:31:00.114Z,93733.80
2019-05-01T13:45:49.600Z,93734.63
2019-05-01T14:00:50.200Z,93740.07
2019-05-01T14:15:50.797Z,93748.06
2019-05-01T14:45:51.826Z,93761.77
2019-05-01T15:00:50.629Z,93760.88
2019-05-01T15:15:52.243Z,93754.59
2019-05-01T15:30:49.018Z,93756.02
2019-05-01T15:45:50.181Z,93749.48
2019-05-01T16:00:49.481Z,93746.97
2019-05-01T16:15:49.367Z,93750.16
2019-05-01T16:30:57.215Z,93767.25
2019-05-01T16:45:50.565Z,93779.72
2019-05-01T17:15:55.762Z,93824.77
2019-05-01T17:30:51.207Z,93858.20
2019-05-01T17:45:49.596Z,93875.52
2019-05-01T18:01:00.177Z,93893.47
2019-05-01T18:15:50.021Z,93910.06
2019-05-01T18:30:56.515Z,93909.32
2019-05-01T18:45:52.812Z,93920.84
2019-05-01T19:00:52.663Z,93945.97
2019-05-01T19:30:48.553Z,93982.43
2019-05-01T19:45:51.928Z,93981.22
2019-05-01T20:00:56.263Z,93974.03
2019-05-01T20:15:49.477Z,93965.30
2019-05-01T20:30:50.771Z,93975.22
2019-05-01T20:45:51.294Z,93973.66
2019-05-01T21:00:53.294Z,93976.00
2019-05-01T21:15:56.472Z,93971.24
2019-05-01T21:30:49.562Z,93973.14
2019-05-01T21:45:53.470Z,93977.56
2019-05-01T22:00:50.641Z,93992.77
2019-05-01T22:15:57.391Z,93997.19
2019-05-01T22:30:52.790Z,94001.09
2019-05-01T22:45:51.236Z,93992.26
2019-05-01T23:00:50.713Z,93994.62
2019-05-01T23:15:51.488Z,93980.25
2019-05-01T23:30:50.208Z,93969.35
2019-05-01T23:45:49.849Z,93963.72
